Time;durP1;ratioP1;P1;durP2;ratioP2;P2;SDS_P1;SDS_P2;PMS_P1;PMS_P2;Temp;Humidity;BMP_temperature;BMP_pressure;BME280_temperature;BME280_humidity;BME280_pressure;Samples;Min_cycle;Max_cycle;Signal;HPM_P1;HPM_P2
2022/03/11 00:01:20;;;;;;;16.20;8.43;;;9.70;41.20;;;;;;5115085;28;20261;-86
2022/03/11 00:03:46;;;;;;;15.00;8.83;;;9.70;41.20;;;;;;5113794;28;20254;-86
2022/03/11 00:06:11;;;;;;;12.80;8.00;;;9.60;41.30;;;;;;5115699;28;20420;-85
2022/03/11 00:08:37;;;;;;;16.20;8.60;;;9.50;41.40;;;;;;5121302;28;20171;-85
2022/03/11 00:11:05;;;;;;;15.00;9.13;;;9.60;41.40;;;;;;5124047;28;20183;-82
2022/03/11 00:13:31;;;;;;;16.00;9.30;;;9.60;41.30;;;;;;5118452;28;20202;-83
2022/03/11 00:15:56;;;;;;;13.15;8.93;;;9.60;41.40;;;;;;5119707;28;20562;-83
2022/03/11 00:18:22;;;;;;;15.50;9.80;;;9.60;41.30;;;;;;5119042;28;20199;-84
2022/03/11 00:20:48;;;;;;;18.37;9.47;;;9.60;41.40;;;;;;5120851;28;20513;-85
2022/03/11 00:23:13;;;;;;;19.30;9.53;;;9.50;41.40;;;;;;5120673;28;20420;-83
2022/03/11 00:25:39;;;;;;;14.30;8.67;;;9.50;41.60;;;;;;5119683;28;20199;-83
2022/03/11 00:28:11;;;;;;;19.27;10.20;;;9.40;41.70;;;;;;5123612;28;20639;-84
2022/03/11 00:30:36;;;;;;;16.17;9.07;;;9.40;41.90;;;;;;5127562;28;20168;-83
2022/03/11 00:33:02;;;;;;;16.50;8.93;;;9.30;41.90;;;;;;5130631;28;20251;-85
2022/03/11 00:35:28;;;;;;;21.07;8.70;;;9.00;42.00;;;;;;5133103;28;20198;-84
2022/03/11 00:37:54;;;;;;;21.63;9.33;;;9.00;42.30;;;;;;5135057;28;20286;-84
2022/03/11 00:40:19;;;;;;;14.10;9.20;;;8.90;42.30;;;;;;5136667;28;20416;-84
2022/03/11 00:42:45;;;;;;;15.77;8.50;;;8.80;42.70;;;;;;5134922;28;20183;-82
2022/03/11 00:45:11;;;;;;;15.50;8.90;;;8.80;42.90;;;;;;5135017;28;20197;-83
2022/03/11 00:47:37;;;;;;;13.90;9.00;;;8.90;42.90;;;;;;5136947;28;20401;-83
2022/03/11 00:50:04;;;;;;;14.97;8.63;;;9.00;42.90;;;;;;5137943;28;20425;-86
2022/03/11 00:52:30;;;;;;;16.02;8.70;;;9.00;42.90;;;;;;5132256;28;20462;-88
2022/03/11 00:54:56;;;;;;;26.23;9.27;;;9.00;42.70;;;;;;5134048;28;20172;-86
2022/03/11 00:57:22;;;;;;;13.47;8.20;;;8.90;42.70;;;;;;5133468;28;20567;-87
2022/03/11 00:59:47;;;;;;;10.87;7.50;;;8.90;42.90;;;;;;5138150;28;20178;-84
2022/03/11 01:02:14;;;;;;;17.00;8.97;;;9.00;42.90;;;;;;5131801;28;20439;-86
2022/03/11 01:04:40;;;;;;;13.60;8.05;;;9.10;42.90;;;;;;5121020;28;20264;-85
2022/03/11 01:07:06;;;;;;;15.20;8.05;;;9.10;42.80;;;;;;5125863;28;20209;-86
2022/03/11 01:09:31;;;;;;;14.03;8.70;;;9.00;42.70;;;;;;5124869;28;20175;-86
2022/03/11 01:11:57;;;;;;;14.40;7.87;;;8.90;42.80;;;;;;5122869;28;20190;-85
2022/03/11 01:14:23;;;;;;;14.20;7.97;;;8.90;43.00;;;;;;5125366;28;20199;-83
2022/03/11 01:16:49;;;;;;;13.27;7.53;;;8.70;43.00;;;;;;5127802;28;20182;-83
2022/03/11 01:19:15;;;;;;;13.30;8.27;;;8.70;43.30;;;;;;5120945;28;20305;-84
2022/03/11 01:21:40;;;;;;;18.63;9.50;;;8.80;43.20;;;;;;5120951;28;20175;-84
2022/03/11 01:24:06;;;;;;;11.27;7.30;;;8.80;43.20;;;;;;5121206;28;20436;-85
2022/03/11 01:26:32;;;;;;;16.05;8.48;;;8.70;43.30;;;;;;5122499;28;20409;-85
2022/03/11 01:28:58;;;;;;;13.03;7.63;;;8.80;43.30;;;;;;5123406;28;20320;-84
2022/03/11 01:31:24;;;;;;;17.53;8.33;;;8.80;43.40;;;;;;5124006;28;20186;-84
2022/03/11 01:33:49;;;;;;;14.20;8.40;;;8.80;43.20;;;;;;5125028;28;20409;-84
2022/03/11 01:36:15;;;;;;;13.93;8.07;;;8.70;43.40;;;;;;5123926;28;20217;-83
2022/03/11 01:38:43;;;;;;;17.87;8.77;;;8.60;43.30;;;;;;5119623;28;20244;-87
2022/03/11 01:41:09;;;;;;;10.18;7.47;;;8.60;43.40;;;;;;5119076;28;20448;-84
2022/03/11 01:44:04;;;;;;;16.33;8.48;;;8.80;43.50;;;;;;5123853;28;20228;-84
2022/03/11 01:46:30;;;;;;;12.38;7.72;;;9.00;43.70;;;;;;5121983;28;20156;-83
2022/03/11 01:49:00;;;;;;;21.27;8.15;;;9.00;43.30;;;;;;5117738;28;20183;-87
2022/03/11 01:51:27;;;;;;;11.70;7.68;;;9.00;43.30;;;;;;5117921;27;20206;-87
2022/03/11 01:53:54;;;;;;;9.55;6.60;;;9.00;43.00;;;;;;5116321;28;20183;-84
2022/03/11 01:56:21;;;;;;;17.92;7.93;;;9.00;42.90;;;;;;5122776;27;20554;-86
2022/03/11 01:58:54;;;;;;;12.18;7.47;;;8.80;42.80;;;;;;5106523;28;20230;-87
2022/03/11 02:01:21;;;;;;;15.07;8.10;;;8.80;42.90;;;;;;5115957;28;20178;-88
2022/03/11 02:03:47;;;;;;;15.90;8.00;;;8.90;43.20;;;;;;5117257;28;20239;-88
2022/03/11 02:06:14;;;;;;;13.63;7.70;;;8.90;43.10;;;;;;5118708;28;20444;-86
2022/03/11 02:08:41;;;;;;;13.77;7.90;;;8.80;43.00;;;;;;5118222;28;20183;-87
2022/03/11 02:11:08;;;;;;;15.73;8.80;;;8.70;43.30;;;;;;5116988;28;20171;-85
2022/03/11 02:13:48;;;;;;;14.20;8.68;;;8.70;43.40;;;;;;5125755;28;20179;-85
2022/03/11 02:16:22;;;;;;;12.68;7.70;;;8.70;43.50;;;;;;5124557;28;20201;-85
2022/03/11 02:18:48;;;;;;;15.40;7.60;;;8.60;43.50;;;;;;5131850;28;20782;-87
2022/03/11 02:21:16;;;;;;;11.80;7.40;;;8.50;43.50;;;;;;5125672;28;20258;-86
2022/03/11 02:23:47;;;;;;;16.10;7.82;;;8.60;43.70;;;;;;5127155;28;20179;-84
2022/03/11 02:26:14;;;;;;;16.40;8.30;;;8.60;43.60;;;;;;5131327;28;20175;-84
2022/03/11 02:28:40;;;;;;;13.48;7.88;;;8.50;43.50;;;;;;5128533;28;20215;-85
2022/03/11 02:31:06;;;;;;;18.25;7.90;;;8.60;43.60;;;;;;5122464;28;20175;-89
2022/03/11 02:33:32;;;;;;;15.77;8.83;;;8.50;43.40;;;;;;5116472;28;20206;-88
2022/03/11 02:35:59;;;;;;;13.80;7.50;;;8.30;43.60;;;;;;5115700;28;20678;-88
2022/03/11 02:38:25;;;;;;;10.80;6.78;;;8.30;43.80;;;;;;5116206;28;20191;-88
2022/03/11 02:40:51;;;;;;;12.13;7.47;;;8.40;43.90;;;;;;5115873;28;20175;-86
2022/03/11 02:43:21;;;;;;;13.50;7.60;;;8.40;43.80;;;;;;5115543;28;20274;-86
2022/03/11 02:45:47;;;;;;;12.50;7.15;;;8.50;44.10;;;;;;5117346;28;20441;-85
2022/03/11 02:48:13;;;;;;;13.87;7.70;;;8.40;44.00;;;;;;5118275;28;20186;-86
2022/03/11 02:50:38;;;;;;;14.50;8.17;;;8.30;44.10;;;;;;5125258;28;20201;-86
2022/03/11 02:53:04;;;;;;;15.67;9.23;;;8.40;44.00;;;;;;5128772;28;20206;-86
2022/03/11 02:55:30;;;;;;;14.40;8.30;;;8.40;44.00;;;;;;5123697;28;20203;-86
2022/03/11 02:57:55;;;;;;;20.00;8.60;;;8.40;43.90;;;;;;5116264;28;20558;-86
2022/03/11 03:00:22;;;;;;;12.27;6.77;;;8.30;43.90;;;;;;5116350;28;20262;-85
2022/03/11 03:02:47;;;;;;;14.35;8.60;;;8.20;43.90;;;;;;5115214;28;20179;-87
2022/03/11 03:05:13;;;;;;;12.70;7.53;;;8.20;44.00;;;;;;5116428;28;20207;-89
2022/03/11 03:07:40;;;;;;;13.60;7.38;;;8.30;44.20;;;;;;5117883;28;20203;-87
2022/03/11 03:10:07;;;;;;;12.10;7.20;;;8.30;44.10;;;;;;5115525;28;20183;-88
2022/03/11 03:12:32;;;;;;;12.90;7.93;;;8.30;44.00;;;;;;5126152;28;20669;-88
2022/03/11 03:14:58;;;;;;;13.43;7.60;;;8.40;43.90;;;;;;5130377;28;20203;-86
2022/03/11 03:17:24;;;;;;;13.03;7.27;;;8.30;43.80;;;;;;5131096;28;20466;-87
2022/03/11 03:19:50;;;;;;;13.67;8.13;;;8.10;43.90;;;;;;5134069;28;20444;-85
2022/03/11 03:22:16;;;;;;;15.52;8.38;;;8.10;44.10;;;;;;5134192;28;20183;-88
2022/03/11 03:24:42;;;;;;;11.60;7.57;;;8.10;44.10;;;;;;5133486;28;20191;-87
2022/03/11 03:27:09;;;;;;;13.25;8.65;;;8.00;44.10;;;;;;5127759;28;20171;-88
2022/03/11 03:29:35;;;;;;;12.25;6.75;;;8.20;44.40;;;;;;5116776;28;20207;-89
2022/03/11 03:32:01;;;;;;;15.85;7.57;;;8.10;44.00;;;;;;5114906;28;20207;-89
2022/03/11 03:34:30;;;;;;;13.60;8.35;;;8.00;44.20;;;;;;5114655;28;20218;-88
2022/03/11 03:37:00;;;;;;;16.67;8.50;;;8.00;44.20;;;;;;5114138;28;20229;-89
2022/03/11 03:39:25;;;;;;;12.90;7.85;;;7.90;44.30;;;;;;5115925;28;20267;-89
2022/03/11 03:41:52;;;;;;;13.97;7.60;;;8.00;44.20;;;;;;5115597;28;20210;-88
2022/03/11 03:44:18;;;;;;;16.98;8.55;;;7.80;44.20;;;;;;5114671;28;20425;-87
2022/03/11 03:46:43;;;;;;;14.53;7.70;;;8.00;44.50;;;;;;5115048;28;20179;-88
2022/03/11 03:49:09;;;;;;;17.40;8.63;;;8.00;44.40;;;;;;5114922;28;20217;-87
2022/03/11 03:51:38;;;;;;;12.37;7.13;;;8.00;44.40;;;;;;5118449;28;20520;-86
2022/03/11 03:54:09;;;;;;;11.77;7.10;;;8.00;44.20;;;;;;5115645;28;20421;-86
2022/03/11 03:56:36;;;;;;;16.23;8.05;;;8.00;44.30;;;;;;5129454;27;20183;-86
2022/03/11 03:59:04;;;;;;;14.40;7.10;;;8.00;44.20;;;;;;5114792;28;20210;-88
2022/03/11 04:01:38;;;;;;;14.80;7.93;;;8.10;44.20;;;;;;5113489;28;20179;-88
2022/03/11 04:04:05;;;;;;;10.27;7.05;;;8.20;44.40;;;;;;5100746;28;20202;-88
2022/03/11 04:06:32;;;;;;;12.82;7.88;;;8.00;44.10;;;;;;5114004;28;20206;-89
2022/03/11 04:08:58;;;;;;;14.07;7.57;;;7.90;44.10;;;;;;5113778;28;20187;-87
2022/03/11 04:11:26;;;;;;;10.48;6.88;;;7.90;44.30;;;;;;5115270;28;20191;-89
2022/03/11 04:13:52;;;;;;;12.05;7.80;;;7.80;44.90;;;;;;5116763;27;20258;-89
2022/03/11 04:16:18;;;;;;;13.52;6.90;;;7.90;44.40;;;;;;5113870;28;20183;-89
2022/03/11 04:18:45;;;;;;;14.80;7.90;;;7.80;44.30;;;;;;5115969;28;20203;-89
2022/03/11 04:21:11;;;;;;;11.82;7.50;;;7.80;44.30;;;;;;5115155;28;20182;-89
2022/03/11 04:23:37;;;;;;;10.98;7.93;;;7.70;44.50;;;;;;5100212;28;20644;-89
2022/03/11 04:26:03;;;;;;;13.87;7.30;;;7.90;44.70;;;;;;5077334;28;20203;-89
2022/03/11 04:28:29;;;;;;;12.65;8.15;;;7.90;44.40;;;;;;5093751;28;20428;-89
2022/03/11 04:30:54;;;;;;;17.70;7.07;;;7.80;44.10;;;;;;5111178;28;20274;-89
2022/03/11 04:33:21;;;;;;;13.20;7.27;;;7.90;44.30;;;;;;5114188;28;20498;-87
2022/03/11 04:35:47;;;;;;;15.70;7.50;;;8.00;44.30;;;;;;5117887;28;20282;-88
2022/03/11 04:38:13;;;;;;;16.20;8.30;;;8.00;44.30;;;;;;5122203;28;20241;-87
2022/03/11 04:40:39;;;;;;;11.07;7.28;;;8.00;44.30;;;;;;5125989;28;20651;-88
2022/03/11 04:43:05;;;;;;;13.35;7.32;;;7.90;43.90;;;;;;5114557;28;20261;-89
2022/03/11 04:45:31;;;;;;;12.17;7.97;;;7.90;44.10;;;;;;5116145;28;20659;-86
2022/03/11 04:47:56;;;;;;;11.70;6.37;;;8.00;44.20;;;;;;5117940;28;20178;-87
2022/03/11 04:50:22;;;;;;;13.17;8.20;;;8.00;44.00;;;;;;5113289;28;20282;-87
2022/03/11 04:52:48;;;;;;;11.75;7.13;;;8.10;44.10;;;;;;5126149;28;20650;-87
2022/03/11 04:55:16;;;;;;;12.67;6.30;;;8.00;43.90;;;;;;5133115;28;20202;-86
2022/03/11 04:57:42;;;;;;;12.52;6.82;;;7.90;44.00;;;;;;5120910;28;20206;-86
2022/03/11 05:00:09;;;;;;;12.77;6.57;;;8.00;44.00;;;;;;5112999;28;20207;-86
2022/03/11 05:02:35;;;;;;;10.82;7.00;;;8.00;43.80;;;;;;5112842;28;20179;-86
2022/03/11 05:05:05;;;;;;;22.30;8.73;;;8.00;43.80;;;;;;5113055;28;20202;-86
2022/03/11 05:07:31;;;;;;;18.55;8.77;;;8.10;44.00;;;;;;5114678;28;20208;-86
2022/03/11 05:09:57;;;;;;;12.95;8.00;;;8.00;43.90;;;;;;5115839;28;20228;-86
2022/03/11 05:12:25;;;;;;;12.67;6.67;;;8.00;44.70;;;;;;5123025;28;20182;-86
2022/03/11 05:14:51;;;;;;;15.27;8.65;;;8.00;43.90;;;;;;5120928;28;20444;-86
2022/03/11 05:17:17;;;;;;;12.57;7.90;;;7.90;43.80;;;;;;5114555;28;20678;-88
2022/03/11 05:19:46;;;;;;;10.63;6.85;;;7.80;43.70;;;;;;5120419;28;20198;-88
2022/03/11 05:22:12;;;;;;;19.20;8.30;;;7.80;43.60;;;;;;5116978;28;20179;-88
2022/03/11 05:24:38;;;;;;;15.20;7.18;;;7.80;43.90;;;;;;5097104;28;20672;-88
2022/03/11 05:27:05;;;;;;;19.67;7.97;;;7.70;43.80;;;;;;5116640;28;20176;-88
2022/03/11 05:29:33;;;;;;;16.70;8.20;;;7.80;43.90;;;;;;5117190;28;20235;-88
2022/03/11 05:32:01;;;;;;;12.80;7.47;;;7.80;43.80;;;;;;5100903;28;20768;-88
2022/03/11 05:34:27;;;;;;;12.75;7.55;;;7.70;43.90;;;;;;5119502;28;20206;-88
2022/03/11 05:36:52;;;;;;;14.67;7.47;;;7.70;44.10;;;;;;5118533;28;20179;-88
2022/03/11 05:39:19;;;;;;;11.40;7.07;;;7.70;44.20;;;;;;5119459;28;20199;-88
2022/03/11 05:41:46;;;;;;;11.48;6.60;;;7.70;44.20;;;;;;5121336;28;20189;-86
2022/03/11 05:44:12;;;;;;;13.20;7.95;;;7.70;44.40;;;;;;5131670;28;20215;-86
2022/03/11 05:46:38;;;;;;;15.55;7.80;;;7.80;44.30;;;;;;5119210;28;20183;-86
2022/03/11 05:49:04;;;;;;;17.25;7.78;;;7.80;44.20;;;;;;5120828;28;20221;-85
2022/03/11 05:51:30;;;;;;;14.30;6.70;;;7.60;44.10;;;;;;5120830;27;20639;-86
2022/03/11 05:53:56;;;;;;;11.70;6.30;;;7.60;44.50;;;;;;5121924;27;20421;-85
2022/03/11 05:56:22;;;;;;;15.47;7.90;;;7.60;44.50;;;;;;5128790;27;20507;-86
2022/03/11 05:58:50;;;;;;;17.87;7.33;;;7.70;44.80;;;;;;5132467;28;20471;-84
2022/03/11 06:01:17;;;;;;;17.48;7.15;;;7.70;44.60;;;;;;5131465;28;20421;-85
2022/03/11 06:03:45;;;;;;;16.50;8.05;;;7.80;44.90;;;;;;5130684;28;20194;-85
2022/03/11 06:06:12;;;;;;;11.98;7.47;;;7.80;44.90;;;;;;5131470;28;20266;-85
2022/03/11 06:08:38;;;;;;;14.85;8.65;;;7.80;44.70;;;;;;5123906;28;20175;-85
2022/03/11 06:11:04;;;;;;;11.70;8.00;;;7.70;44.70;;;;;;5131237;28;20187;-85
2022/03/11 06:13:29;;;;;;;19.30;7.33;;;7.70;44.80;;;;;;5120213;28;20191;-85
2022/03/11 06:15:55;;;;;;;20.03;7.50;;;7.70;45.10;;;;;;5115699;28;20226;-85
2022/03/11 06:18:21;;;;;;;13.77;8.13;;;7.70;44.90;;;;;;5117199;28;20213;-85
2022/03/11 06:20:47;;;;;;;15.13;7.90;;;7.70;44.90;;;;;;5117760;28;20183;-85
2022/03/11 06:23:13;;;;;;;13.20;8.00;;;7.60;45.00;;;;;;5114552;28;20186;-84
2022/03/11 06:25:42;;;;;;;11.45;7.45;;;7.50;45.00;;;;;;5120317;28;20213;-85
2022/03/11 06:28:08;;;;;;;16.15;8.38;;;7.70;45.40;;;;;;5120570;28;20231;-85
2022/03/11 06:30:34;;;;;;;15.38;7.68;;;7.70;45.20;;;;;;5127365;28;20190;-84
2022/03/11 06:33:00;;;;;;;22.87;8.47;;;7.70;45.10;;;;;;5105677;28;20192;-86
2022/03/11 06:35:27;;;;;;;14.70;7.03;;;7.70;45.20;;;;;;5119389;28;20445;-86
2022/03/11 06:37:54;;;;;;;18.08;8.43;;;7.70;45.20;;;;;;5118492;28;20517;-86
2022/03/11 06:40:20;;;;;;;15.60;8.88;;;7.70;45.40;;;;;;5121969;27;20201;-86
2022/03/11 06:42:48;;;;;;;9.85;6.70;;;7.80;45.00;;;;;;5118716;28;20228;-86
2022/03/11 06:45:15;;;;;;;17.45;7.70;;;7.80;45.00;;;;;;5103559;28;20758;-87
2022/03/11 06:47:47;;;;;;;14.25;7.78;;;7.80;45.20;;;;;;5118944;28;20179;-87
2022/03/11 06:50:16;;;;;;;16.85;7.68;;;7.80;45.10;;;;;;5119205;28;20782;-85
2022/03/11 06:52:43;;;;;;;13.02;7.45;;;7.90;45.00;;;;;;5119224;28;20171;-86
2022/03/11 06:55:09;;;;;;;16.58;8.30;;;7.90;44.90;;;;;;5114116;27;20248;-86
2022/03/11 06:57:35;;;;;;;18.27;7.75;;;7.90;44.80;;;;;;5097916;28;20206;-85
2022/03/11 07:00:03;;;;;;;15.60;7.93;;;7.90;45.00;;;;;;5114569;28;20168;-85
2022/03/11 07:02:30;;;;;;;11.98;7.20;;;7.80;45.00;;;;;;5114224;28;20410;-86
2022/03/11 07:04:55;;;;;;;14.43;8.15;;;7.90;45.30;;;;;;5117206;28;20234;-82
2022/03/11 07:07:22;;;;;;;11.40;7.73;;;8.00;45.20;;;;;;5118542;28;20183;-84
2022/03/11 07:09:48;;;;;;;13.52;7.82;;;7.90;45.50;;;;;;5115337;28;21124;-83
2022/03/11 07:12:14;;;;;;;14.48;8.07;;;8.00;45.40;;;;;;5112592;27;20191;-84
2022/03/11 07:14:41;;;;;;;14.60;8.20;;;7.90;45.50;;;;;;5115454;28;20273;-84
2022/03/11 07:17:07;;;;;;;14.77;8.60;;;8.00;45.40;;;;;;5114931;28;20419;-85
2022/03/11 07:19:34;;;;;;;12.50;6.70;;;8.10;45.30;;;;;;5115086;28;20179;-85
2022/03/11 07:22:02;;;;;;;11.15;7.03;;;8.10;45.20;;;;;;5114430;28;20195;-85
2022/03/11 07:24:28;;;;;;;17.63;8.20;;;8.10;45.20;;;;;;5110976;28;20770;-84
2022/03/11 07:26:54;;;;;;;17.13;8.20;;;8.10;45.30;;;;;;5110385;28;20211;-85
2022/03/11 07:29:20;;;;;;;13.48;7.53;;;8.30;45.30;;;;;;5114086;28;20183;-83
2022/03/11 07:31:46;;;;;;;16.83;7.87;;;8.30;45.60;;;;;;5117363;28;20182;-82
2022/03/11 07:34:12;;;;;;;18.55;8.10;;;8.30;45.40;;;;;;5118148;28;20520;-82
2022/03/11 07:36:38;;;;;;;12.70;7.72;;;8.50;45.30;;;;;;5118672;28;20179;-83
2022/03/11 07:39:06;;;;;;;21.27;8.00;;;8.40;45.20;;;;;;5116603;28;20362;-87
2022/03/11 07:41:32;;;;;;;13.13;7.85;;;8.50;45.10;;;;;;5097090;28;20179;-86
2022/03/11 07:43:58;;;;;;;13.73;7.40;;;8.70;45.20;;;;;;5095668;28;20532;-87
2022/03/11 07:46:27;;;;;;;14.82;7.93;;;8.80;44.80;;;;;;5114469;28;20211;-87
2022/03/11 07:48:53;;;;;;;14.63;7.20;;;8.80;44.90;;;;;;5115833;28;20228;-87
2022/03/11 07:51:19;;;;;;;13.70;7.15;;;8.80;44.50;;;;;;5119103;28;20179;-88
2022/03/11 07:53:45;;;;;;;12.32;7.40;;;8.80;44.70;;;;;;5114112;28;20270;-87
2022/03/11 07:56:12;;;;;;;13.37;7.67;;;8.90;44.40;;;;;;5115913;28;20591;-87
2022/03/11 07:58:39;;;;;;;12.90;7.30;;;9.00;44.30;;;;;;5119309;28;20510;-87
2022/03/11 08:01:09;;;;;;;10.60;6.95;;;9.00;44.10;;;;;;5118473;28;20175;-87
2022/03/11 08:03:36;;;;;;;15.30;7.40;;;9.20;44.20;;;;;;5124345;28;20186;-88
2022/03/11 08:06:03;;;;;;;12.75;7.35;;;9.20;44.40;;;;;;5130741;28;20217;-87
2022/03/11 08:08:28;;;;;;;14.95;8.13;;;9.30;43.90;;;;;;5136219;28;20214;-86
2022/03/11 08:10:54;;;;;;;17.77;8.50;;;9.20;43.90;;;;;;5130042;28;20195;-86
2022/03/11 08:13:21;;;;;;;13.00;7.30;;;9.50;44.30;;;;;;5124736;28;20183;-88
2022/03/11 08:15:47;;;;;;;11.65;7.53;;;9.50;44.20;;;;;;5123635;28;20198;-87
2022/03/11 08:18:12;;;;;;;14.53;7.97;;;9.70;43.70;;;;;;5125980;28;20221;-88
2022/03/11 08:20:38;;;;;;;17.27;8.37;;;9.70;43.80;;;;;;5116925;28;20508;-86
2022/03/11 08:23:04;;;;;;;19.83;7.97;;;9.70;43.50;;;;;;5118259;28;20440;-87
2022/03/11 08:25:30;;;;;;;19.23;7.40;;;9.70;44.30;;;;;;5117381;28;20258;-83
2022/03/11 08:27:57;;;;;;;14.88;7.45;;;10.00;44.40;;;;;;5117875;28;20236;-83
2022/03/11 08:30:25;;;;;;;16.90;8.50;;;10.00;44.30;;;;;;5117007;28;20344;-84
2022/03/11 08:32:52;;;;;;;16.63;7.82;;;10.00;44.10;;;;;;5127147;28;20789;-86
2022/03/11 08:35:19;;;;;;;14.15;8.10;;;10.00;43.80;;;;;;5137959;27;20197;-84
2022/03/11 08:37:45;;;;;;;21.15;7.70;;;10.10;43.70;;;;;;5139418;27;20202;-84
2022/03/11 08:40:12;;;;;;;19.52;7.68;;;10.20;44.30;;;;;;5139392;28;20185;-84
2022/03/11 08:42:39;;;;;;;12.48;7.47;;;10.40;44.40;;;;;;5145177;28;20199;-86
2022/03/11 08:45:06;;;;;;;13.07;7.45;;;10.40;44.20;;;;;;5151466;28;20226;-88
2022/03/11 08:47:33;;;;;;;13.70;7.78;;;10.60;44.20;;;;;;5150801;28;20272;-86
2022/03/11 08:49:59;;;;;;;25.30;7.63;;;10.60;44.60;;;;;;5150238;28;20175;-87
2022/03/11 08:52:25;;;;;;;12.40;8.07;;;10.70;44.30;;;;;;5152829;28;20182;-85
2022/03/11 08:54:52;;;;;;;13.20;8.05;;;10.70;44.60;;;;;;5150653;28;20428;-86
2022/03/11 08:57:19;;;;;;;15.02;8.13;;;10.70;44.60;;;;;;5131786;28;20270;-88
2022/03/11 08:59:45;;;;;;;15.48;7.85;;;10.80;45.00;;;;;;5103464;28;20615;-88
2022/03/11 09:02:13;;;;;;;12.75;7.05;;;10.90;45.70;;;;;;5124041;28;20198;-88
2022/03/11 09:04:39;;;;;;;16.92;7.38;;;10.90;45.20;;;;;;5122302;28;20214;-89
2022/03/11 09:07:05;;;;;;;13.88;7.72;;;10.90;44.90;;;;;;5100820;28;20241;-87
2022/03/11 09:09:32;;;;;;;12.25;6.95;;;11.00;45.30;;;;;;5117179;28;20183;-85
2022/03/11 09:11:58;;;;;;;15.02;7.82;;;11.00;45.60;;;;;;5117475;28;20179;-84
2022/03/11 09:14:24;;;;;;;11.77;6.75;;;11.10;46.20;;;;;;5117291;28;20206;-84
2022/03/11 09:16:51;;;;;;;13.20;8.03;;;11.20;46.00;;;;;;5117316;28;20715;-85
2022/03/11 09:19:17;;;;;;;19.17;8.20;;;11.20;46.20;;;;;;5116767;28;20531;-86
2022/03/11 09:21:43;;;;;;;12.07;7.50;;;11.20;46.30;;;;;;5099729;28;20340;-87
2022/03/11 09:24:09;;;;;;;16.42;7.28;;;11.20;46.50;;;;;;5115984;28;20297;-86
2022/03/11 09:26:35;;;;;;;15.07;7.10;;;11.30;47.70;;;;;;5118172;28;20178;-86
2022/03/11 09:29:01;;;;;;;13.87;7.20;;;11.40;46.70;;;;;;5117220;28;20178;-86
2022/03/11 09:31:26;;;;;;;12.03;7.73;;;11.50;46.60;;;;;;5118138;28;20917;-87
2022/03/11 09:33:52;;;;;;;12.37;7.23;;;11.60;46.20;;;;;;5119988;28;20647;-86
2022/03/11 09:36:18;;;;;;;12.23;8.23;;;11.90;46.20;;;;;;5122951;28;20243;-84
2022/03/11 09:38:44;;;;;;;9.65;6.35;;;12.00;45.80;;;;;;5126700;28;20215;-85
2022/03/11 09:41:10;;;;;;;10.90;6.80;;;12.00;46.20;;;;;;5126337;28;20247;-84
2022/03/11 09:43:38;;;;;;;16.17;9.25;;;12.00;46.10;;;;;;5124704;28;20413;-84
2022/03/11 09:46:06;;;;;;;13.38;7.38;;;12.20;46.10;;;;;;5120346;28;20195;-88
2022/03/11 09:48:34;;;;;;;13.50;7.57;;;12.20;46.00;;;;;;5116020;28;20185;-88
2022/03/11 09:51:00;;;;;;;20.15;7.65;;;12.30;45.90;;;;;;5115829;28;20651;-87
2022/03/11 09:53:27;;;;;;;12.05;6.80;;;12.20;46.20;;;;;;5115938;28;20666;-86
2022/03/11 09:55:54;;;;;;;18.88;7.93;;;12.30;46.40;;;;;;5125948;27;20198;-89
2022/03/11 09:58:20;;;;;;;12.85;7.90;;;12.30;46.00;;;;;;5138233;27;20228;-87
2022/03/11 10:00:48;;;;;;;11.20;6.90;;;12.40;46.40;;;;;;5137448;27;20655;-88
2022/03/11 10:03:14;;;;;;;16.00;7.75;;;12.50;46.10;;;;;;5138979;27;20863;-88
2022/03/11 10:05:51;;;;;;;15.93;7.80;;;12.50;46.40;;;;;;5142421;27;20195;-84
2022/03/11 10:08:39;;;;;;;14.38;7.72;;;12.50;46.60;;;;;;5142296;27;20416;-84
2022/03/11 10:11:19;;;;;;;6.97;5.68;;;12.60;46.90;;;;;;5143618;27;20186;-85
2022/03/11 10:13:44;;;;;;;44.88;7.20;;;12.50;47.00;;;;;;5144003;27;20242;-87
2022/03/11 10:16:18;;;;;;;12.50;7.10;;;12.40;47.10;;;;;;5142780;27;20240;-87
2022/03/11 10:19:13;;;;;;;10.35;7.28;;;12.50;47.70;;;;;;5125301;28;20479;-84
2022/03/11 10:21:46;;;;;;;12.18;7.22;;;12.60;47.40;;;;;;5119300;28;20603;-86
2022/03/11 10:24:15;;;;;;;11.48;5.95;;;12.90;47.10;;;;;;5123218;28;20199;-85
2022/03/11 10:26:48;;;;;;;12.20;6.47;;;12.90;47.10;;;;;;5123441;28;20216;-84
2022/03/11 10:29:19;;;;;;;12.43;7.15;;;13.00;46.80;;;;;;5129438;28;20166;-85
2022/03/11 10:31:47;;;;;;;9.52;5.68;;;13.10;46.80;;;;;;5125303;28;20282;-84
2022/03/11 10:34:17;;;;;;;12.63;6.85;;;13.20;46.50;;;;;;5120205;28;20256;-85
2022/03/11 10:36:52;;;;;;;11.25;7.00;;;13.20;46.40;;;;;;5123085;28;20232;-85
2022/03/11 10:39:38;;;;;;;17.05;7.40;;;13.20;46.10;;;;;;5117839;28;20198;-88
2022/03/11 10:42:20;;;;;;;13.48;6.95;;;13.40;46.00;;;;;;5117268;28;20235;-89
2022/03/11 10:44:59;;;;;;;14.50;7.45;;;13.40;45.80;;;;;;5116444;28;20701;-89
2022/03/11 10:47:31;;;;;;;11.55;7.97;;;13.40;46.30;;;;;;5116807;28;20674;-89
2022/03/11 10:50:00;;;;;;;12.32;7.47;;;13.30;46.40;;;;;;5119267;28;20174;-89
2022/03/11 10:52:31;;;;;;;9.68;7.38;;;13.50;46.30;;;;;;5119839;28;20171;-87
2022/03/11 10:54:58;;;;;;;10.75;6.30;;;13.40;46.50;;;;;;5121252;28;20212;-87
2022/03/11 10:57:36;;;;;;;13.95;8.20;;;13.40;46.40;;;;;;5116395;28;20214;-88
2022/03/11 11:00:24;;;;;;;12.82;8.13;;;13.40;46.70;;;;;;5115904;28;20171;-88
2022/03/11 11:02:52;;;;;;;10.38;7.35;;;13.60;46.60;;;;;;5118198;28;20181;-88
2022/03/11 11:05:18;;;;;;;13.73;7.40;;;13.80;46.50;;;;;;5115333;28;20199;-88
2022/03/11 11:07:45;;;;;;;15.40;8.45;;;13.90;46.40;;;;;;5114524;28;20187;-88
2022/03/11 11:10:12;;;;;;;15.07;7.82;;;14.00;46.00;;;;;;5116039;28;20183;-88
2022/03/11 11:12:39;;;;;;;11.10;7.35;;;13.90;45.60;;;;;;5121151;28;20190;-87
2022/03/11 11:15:06;;;;;;;11.57;7.43;;;13.90;45.80;;;;;;5133533;28;20206;-87
2022/03/11 11:17:36;;;;;;;11.10;7.43;;;14.00;46.40;;;;;;5133869;28;20213;-87
2022/03/11 11:20:04;;;;;;;9.80;6.53;;;14.10;47.00;;;;;;5133515;28;20175;-86
2022/03/11 11:22:30;;;;;;;25.33;8.27;;;14.10;47.20;;;;;;5135211;28;20140;-85
2022/03/11 11:24:59;;;;;;;10.82;6.18;;;14.30;47.10;;;;;;5133841;28;20191;-88
2022/03/11 11:27:26;;;;;;;11.10;6.88;;;14.30;46.50;;;;;;5123331;28;20266;-87
2022/03/11 11:29:52;;;;;;;8.20;6.60;;;14.30;46.90;;;;;;5128659;28;20210;-86
2022/03/11 11:32:19;;;;;;;13.95;7.05;;;14.40;47.00;;;;;;5137288;28;20186;-85
2022/03/11 11:34:45;;;;;;;10.73;6.97;;;14.50;46.90;;;;;;5122871;28;20195;-84
2022/03/11 11:37:37;;;;;;;17.88;6.90;;;14.60;47.60;;;;;;5120122;28;20171;-84
2022/03/11 11:40:23;;;;;;;7.68;6.25;;;14.90;47.90;;;;;;5120867;28;20167;-89
2022/03/11 11:43:34;;;;;;;11.35;7.90;;;15.10;47.50;;;;;;5116290;28;20178;-82
2022/03/11 11:46:12;;;;;;;8.45;6.70;;;15.10;47.10;;;;;;5117748;28;20195;-82
2022/03/11 11:48:45;;;;;;;6.68;5.97;;;15.10;48.10;;;;;;5117747;28;20174;-82
2022/03/11 11:51:40;;;;;;;13.45;6.60;;;15.20;47.40;;;;;;5117134;28;20163;-84
2022/03/11 11:54:11;;;;;;;12.25;7.35;;;15.30;47.20;;;;;;5130061;27;20221;-82
2022/03/11 11:56:44;;;;;;;8.23;6.43;;;15.20;46.60;;;;;;5137600;27;20519;-83
2022/03/11 11:59:16;;;;;;;9.43;6.88;;;15.30;46.60;;;;;;5135587;27;20572;-83
2022/03/11 12:01:49;;;;;;;12.38;6.85;;;15.40;46.70;;;;;;5136007;27;20166;-84
2022/03/11 12:04:34;;;;;;;11.45;6.28;;;15.40;46.90;;;;;;5134953;27;20198;-83
2022/03/11 12:07:01;;;;;;;13.93;7.50;;;15.40;46.50;;;;;;5135188;27;20170;-85
2022/03/11 12:09:40;;;;;;;10.35;6.43;;;15.40;46.30;;;;;;5135478;28;20242;-83
2022/03/11 12:12:06;;;;;;;7.55;5.75;;;15.40;46.30;;;;;;5137078;28;20174;-82
2022/03/11 12:14:52;;;;;;;9.27;6.60;;;15.40;46.40;;;;;;5135717;28;20195;-82
2022/03/11 12:17:34;;;;;;;7.93;5.90;;;15.50;46.80;;;;;;5137365;28;20170;-83
2022/03/11 12:20:24;;;;;;;10.63;6.35;;;15.50;46.90;;;;;;5136244;28;20465;-83
2022/03/11 12:22:57;;;;;;;11.98;5.90;;;15.60;46.80;;;;;;5127788;28;20589;-85
2022/03/11 12:25:28;;;;;;;8.45;6.40;;;15.50;46.80;;;;;;5114354;28;20203;-87
2022/03/11 12:28:25;;;;;;;8.38;7.07;;;15.70;46.30;;;;;;5116099;28;20163;-86
2022/03/11 12:30:51;;;;;;;11.60;6.28;;;15.80;46.00;;;;;;5118102;28;20247;-85
2022/03/11 12:34:06;;;;;;;11.17;5.93;;;15.90;45.80;;;;;;5124456;28;20175;-90
2022/03/11 12:36:51;;;;;;;8.73;5.50;;;15.90;46.00;;;;;;5128135;28;20175;-90
2022/03/11 12:39:18;;;;;;;7.80;6.27;;;15.90;45.80;;;;;;5127942;28;20213;-91
2022/03/11 12:41:45;;;;;;;8.18;5.80;;;15.90;45.90;;;;;;5124593;28;20417;-90
2022/03/11 12:44:11;;;;;;;8.43;6.75;;;16.20;46.00;;;;;;5122113;28;20206;-91
2022/03/11 12:46:37;;;;;;;11.33;6.00;;;16.30;45.90;;;;;;5120335;28;20167;-90
2022/03/11 12:49:03;;;;;;;7.67;6.63;;;16.20;45.50;;;;;;5126056;28;20412;-88